sensor_id;sensor_type;location;lat;lon;timestamp;P1;durP1;ratioP1;P2;durP2;ratioP2
44428;SDS011;30134;47.866;-4.222;2023-06-04T00:00:44;90.95;;;57.10;;
44428;SDS011;30134;47.866;-4.222;2023-06-04T00:03:11;88.72;;;55.33;;
44428;SDS011;30134;47.866;-4.222;2023-06-04T00:05:37;79.65;;;49.80;;
44428;SDS011;30134;47.866;-4.222;2023-06-04T00:08:03;74.07;;;46.97;;
44428;SDS011;30134;47.866;-4.222;2023-06-04T00:10:29;78.00;;;47.90;;
44428;SDS011;30134;47.866;-4.222;2023-06-04T00:12:57;72.60;;;46.83;;
44428;SDS011;30134;47.866;-4.222;2023-06-04T00:15:23;76.07;;;46.30;;
44428;SDS011;30134;47.866;-4.222;2023-06-04T00:17:49;67.22;;;42.22;;
44428;SDS011;30134;47.866;-4.222;2023-06-04T00:20:16;63.67;;;40.78;;
44428;SDS011;30134;47.866;-4.222;2023-06-04T00:22:43;60.40;;;38.10;;
44428;SDS011;30134;47.866;-4.222;2023-06-04T00:25:10;64.63;;;41.22;;
44428;SDS011;30134;47.866;-4.222;2023-06-04T00:27:36;53.92;;;36.25;;
44428;SDS011;30134;47.866;-4.222;2023-06-04T00:30:03;58.35;;;37.85;;
44428;SDS011;30134;47.866;-4.222;2023-06-04T00:32:30;52.42;;;34.67;;
44428;SDS011;30134;47.866;-4.222;2023-06-04T00:34:56;50.08;;;32.58;;
44428;SDS011;30134;47.866;-4.222;2023-06-04T00:37:27;48.20;;;31.98;;
44428;SDS011;30134;47.866;-4.222;2023-06-04T00:39:54;46.50;;;31.48;;
44428;SDS011;30134;47.866;-4.222;2023-06-04T00:42:20;48.47;;;30.27;;
44428;SDS011;30134;47.866;-4.222;2023-06-04T00:44:46;47.80;;;30.25;;
44428;SDS011;30134;47.866;-4.222;2023-06-04T00:47:16;43.47;;;27.90;;
44428;SDS011;30134;47.866;-4.222;2023-06-04T00:49:45;48.35;;;29.55;;
44428;SDS011;30134;47.866;-4.222;2023-06-04T00:52:14;40.70;;;25.73;;
44428;SDS011;30134;47.866;-4.222;2023-06-04T00:54:41;39.63;;;25.75;;
44428;SDS011;30134;47.866;-4.222;2023-06-04T00:57:09;36.67;;;23.90;;
44428;SDS011;30134;47.866;-4.222;2023-06-04T00:59:36;36.38;;;23.30;;
44428;SDS011;30134;47.866;-4.222;2023-06-04T01:02:06;35.45;;;21.88;;
44428;SDS011;30134;47.866;-4.222;2023-06-04T01:07:35;30.30;;;20.45;;
44428;SDS011;30134;47.866;-4.222;2023-06-04T01:10:02;36.08;;;22.08;;
44428;SDS011;30134;47.866;-4.222;2023-06-04T01:12:29;29.65;;;19.13;;
44428;SDS011;30134;47.866;-4.222;2023-06-04T01:14:55;33.90;;;20.60;;
44428;SDS011;30134;47.866;-4.222;2023-06-04T01:17:22;28.42;;;18.55;;
44428;SDS011;30134;47.866;-4.222;2023-06-04T01:20:05;27.38;;;17.65;;
44428;SDS011;30134;47.866;-4.222;2023-06-04T01:25:49;24.80;;;16.50;;
44428;SDS011;30134;47.866;-4.222;2023-06-04T01:28:16;25.48;;;16.75;;
44428;SDS011;30134;47.866;-4.222;2023-06-04T01:30:45;24.38;;;15.02;;
44428;SDS011;30134;47.866;-4.222;2023-06-04T01:33:21;22.35;;;15.27;;
44428;SDS011;30134;47.866;-4.222;2023-06-04T01:35:48;22.38;;;13.90;;
44428;SDS011;30134;47.866;-4.222;2023-06-04T01:38:15;18.20;;;12.90;;
44428;SDS011;30134;47.866;-4.222;2023-06-04T01:40:41;20.33;;;13.27;;
44428;SDS011;30134;47.866;-4.222;2023-06-04T01:43:07;19.77;;;13.57;;
44428;SDS011;30134;47.866;-4.222;2023-06-04T01:45:33;21.60;;;12.95;;
44428;SDS011;30134;47.866;-4.222;2023-06-04T01:48:03;18.92;;;12.68;;
44428;SDS011;30134;47.866;-4.222;2023-06-04T01:50:30;19.30;;;11.63;;
44428;SDS011;30134;47.866;-4.222;2023-06-04T01:52:57;17.85;;;11.05;;
44428;SDS011;30134;47.866;-4.222;2023-06-04T01:55:23;18.35;;;11.55;;
44428;SDS011;30134;47.866;-4.222;2023-06-04T01:57:54;15.73;;;10.70;;
44428;SDS011;30134;47.866;-4.222;2023-06-04T02:00:21;14.93;;;10.02;;
44428;SDS011;30134;47.866;-4.222;2023-06-04T02:02:47;16.67;;;10.05;;
44428;SDS011;30134;47.866;-4.222;2023-06-04T02:05:14;16.75;;;9.65;;
44428;SDS011;30134;47.866;-4.222;2023-06-04T02:07:41;14.68;;;9.70;;
44428;SDS011;30134;47.866;-4.222;2023-06-04T02:10:13;15.38;;;10.07;;
44428;SDS011;30134;47.866;-4.222;2023-06-04T02:12:54;15.63;;;9.85;;
44428;SDS011;30134;47.866;-4.222;2023-06-04T02:15:32;14.57;;;9.48;;
44428;SDS011;30134;47.866;-4.222;2023-06-04T02:17:59;14.40;;;8.38;;
44428;SDS011;30134;47.866;-4.222;2023-06-04T02:20:47;12.82;;;8.20;;
44428;SDS011;30134;47.866;-4.222;2023-06-04T02:23:14;12.07;;;8.05;;
44428;SDS011;30134;47.866;-4.222;2023-06-04T02:25:45;14.20;;;9.13;;
44428;SDS011;30134;47.866;-4.222;2023-06-04T02:28:12;12.43;;;7.80;;
44428;SDS011;30134;47.866;-4.222;2023-06-04T02:30:39;10.25;;;7.25;;
44428;SDS011;30134;47.866;-4.222;2023-06-04T02:33:05;12.00;;;7.18;;
44428;SDS011;30134;47.866;-4.222;2023-06-04T02:35:31;10.25;;;6.97;;
44428;SDS011;30134;47.866;-4.222;2023-06-04T02:37:57;10.70;;;6.90;;
44428;SDS011;30134;47.866;-4.222;2023-06-04T02:40:29;8.95;;;6.80;;
44428;SDS011;30134;47.866;-4.222;2023-06-04T02:42:56;9.95;;;6.35;;
44428;SDS011;30134;47.866;-4.222;2023-06-04T02:45:22;10.57;;;6.60;;
44428;SDS011;30134;47.866;-4.222;2023-06-04T02:47:48;10.23;;;6.57;;
44428;SDS011;30134;47.866;-4.222;2023-06-04T02:50:15;9.32;;;6.30;;
44428;SDS011;30134;47.866;-4.222;2023-06-04T02:52:41;10.55;;;6.25;;
44428;SDS011;30134;47.866;-4.222;2023-06-04T02:55:08;8.40;;;5.70;;
44428;SDS011;30134;47.866;-4.222;2023-06-04T02:57:34;8.68;;;5.93;;
44428;SDS011;30134;47.866;-4.222;2023-06-04T03:00:01;10.50;;;5.97;;
44428;SDS011;30134;47.866;-4.222;2023-06-04T03:02:40;8.07;;;5.68;;
44428;SDS011;30134;47.866;-4.222;2023-06-04T03:05:09;7.13;;;5.20;;
44428;SDS011;30134;47.866;-4.222;2023-06-04T03:07:37;7.40;;;5.15;;
44428;SDS011;30134;47.866;-4.222;2023-06-04T03:10:06;9.20;;;5.38;;
44428;SDS011;30134;47.866;-4.222;2023-06-04T03:12:33;8.65;;;5.15;;
44428;SDS011;30134;47.866;-4.222;2023-06-04T03:15:00;7.32;;;4.88;;
44428;SDS011;30134;47.866;-4.222;2023-06-04T03:17:26;8.40;;;4.95;;
44428;SDS011;30134;47.866;-4.222;2023-06-04T03:19:52;7.10;;;4.88;;
44428;SDS011;30134;47.866;-4.222;2023-06-04T03:22:21;6.18;;;4.53;;
44428;SDS011;30134;47.866;-4.222;2023-06-04T03:24:47;7.50;;;4.50;;
44428;SDS011;30134;47.866;-4.222;2023-06-04T03:27:13;7.63;;;4.55;;
44428;SDS011;30134;47.866;-4.222;2023-06-04T03:29:39;8.25;;;4.80;;
44428;SDS011;30134;47.866;-4.222;2023-06-04T03:32:05;6.03;;;4.20;;
44428;SDS011;30134;47.866;-4.222;2023-06-04T03:34:32;7.40;;;4.40;;
44428;SDS011;30134;47.866;-4.222;2023-06-04T03:36:59;6.25;;;4.47;;
44428;SDS011;30134;47.866;-4.222;2023-06-04T03:39:25;5.35;;;3.75;;
44428;SDS011;30134;47.866;-4.222;2023-06-04T03:41:51;7.35;;;4.30;;
44428;SDS011;30134;47.866;-4.222;2023-06-04T03:44:19;5.90;;;3.67;;
44428;SDS011;30134;47.866;-4.222;2023-06-04T03:46:45;7.30;;;3.65;;
44428;SDS011;30134;47.866;-4.222;2023-06-04T03:49:12;6.70;;;4.32;;
44428;SDS011;30134;47.866;-4.222;2023-06-04T03:51:40;6.32;;;4.00;;
44428;SDS011;30134;47.866;-4.222;2023-06-04T03:54:06;6.75;;;3.75;;
44428;SDS011;30134;47.866;-4.222;2023-06-04T03:56:32;5.10;;;3.42;;
44428;SDS011;30134;47.866;-4.222;2023-06-04T03:58:59;6.03;;;3.60;;
44428;SDS011;30134;47.866;-4.222;2023-06-04T04:01:26;5.13;;;3.65;;
44428;SDS011;30134;47.866;-4.222;2023-06-04T04:03:53;6.57;;;3.60;;
44428;SDS011;30134;47.866;-4.222;2023-06-04T04:06:21;5.35;;;3.40;;
44428;SDS011;30134;47.866;-4.222;2023-06-04T04:08:48;6.22;;;3.20;;
44428;SDS011;30134;47.866;-4.222;2023-06-04T04:11:14;5.28;;;3.30;;
44428;SDS011;30134;47.866;-4.222;2023-06-04T04:13:41;5.82;;;3.53;;
44428;SDS011;30134;47.866;-4.222;2023-06-04T04:16:09;5.88;;;3.42;;
44428;SDS011;30134;47.866;-4.222;2023-06-04T04:18:36;6.18;;;3.65;;
44428;SDS011;30134;47.866;-4.222;2023-06-04T04:21:02;4.68;;;3.35;;
44428;SDS011;30134;47.866;-4.222;2023-06-04T04:23:30;5.97;;;3.47;;
44428;SDS011;30134;47.866;-4.222;2023-06-04T04:25:59;4.72;;;3.00;;
44428;SDS011;30134;47.866;-4.222;2023-06-04T04:28:27;6.75;;;3.63;;
44428;SDS011;30134;47.866;-4.222;2023-06-04T04:30:54;6.20;;;3.00;;
44428;SDS011;30134;47.866;-4.222;2023-06-04T04:33:24;4.18;;;3.20;;
44428;SDS011;30134;47.866;-4.222;2023-06-04T04:35:51;4.22;;;2.90;;
44428;SDS011;30134;47.866;-4.222;2023-06-04T04:38:21;5.38;;;3.33;;
44428;SDS011;30134;47.866;-4.222;2023-06-04T04:40:49;4.75;;;2.78;;
44428;SDS011;30134;47.866;-4.222;2023-06-04T04:43:19;4.43;;;3.20;;
44428;SDS011;30134;47.866;-4.222;2023-06-04T04:45:58;4.15;;;2.65;;
44428;SDS011;30134;47.866;-4.222;2023-06-04T04:48:24;5.55;;;3.28;;
44428;SDS011;30134;47.866;-4.222;2023-06-04T04:50:51;4.22;;;2.70;;
44428;SDS011;30134;47.866;-4.222;2023-06-04T04:53:18;5.13;;;2.80;;
44428;SDS011;30134;47.866;-4.222;2023-06-04T04:55:44;3.90;;;2.60;;
44428;SDS011;30134;47.866;-4.222;2023-06-04T04:58:10;5.05;;;3.08;;
44428;SDS011;30134;47.866;-4.222;2023-06-04T05:00:37;4.05;;;2.65;;
44428;SDS011;30134;47.866;-4.222;2023-06-04T05:03:06;4.43;;;2.97;;
44428;SDS011;30134;47.866;-4.222;2023-06-04T05:05:32;4.40;;;2.92;;
44428;SDS011;30134;47.866;-4.222;2023-06-04T05:07:58;4.15;;;2.78;;
44428;SDS011;30134;47.866;-4.222;2023-06-04T05:10:24;4.25;;;2.60;;
44428;SDS011;30134;47.866;-4.222;2023-06-04T05:12:51;5.13;;;2.83;;
44428;SDS011;30134;47.866;-4.222;2023-06-04T05:15:22;3.45;;;2.47;;
44428;SDS011;30134;47.866;-4.222;2023-06-04T05:17:49;4.25;;;2.67;;
44428;SDS011;30134;47.866;-4.222;2023-06-04T05:20:17;3.55;;;2.70;;
44428;SDS011;30134;47.866;-4.222;2023-06-04T05:22:46;3.92;;;2.58;;
44428;SDS011;30134;47.866;-4.222;2023-06-04T05:25:12;3.55;;;2.33;;
44428;SDS011;30134;47.866;-4.222;2023-06-04T05:27:39;3.35;;;2.60;;
44428;SDS011;30134;47.866;-4.222;2023-06-04T05:30:06;4.10;;;2.70;;
44428;SDS011;30134;47.866;-4.222;2023-06-04T05:32:33;4.97;;;2.95;;
44428;SDS011;30134;47.866;-4.222;2023-06-04T05:35:01;4.78;;;2.67;;
44428;SDS011;30134;47.866;-4.222;2023-06-04T05:37:29;3.67;;;2.38;;
44428;SDS011;30134;47.866;-4.222;2023-06-04T05:39:56;4.35;;;3.00;;
44428;SDS011;30134;47.866;-4.222;2023-06-04T05:42:22;2.80;;;2.47;;
44428;SDS011;30134;47.866;-4.222;2023-06-04T05:44:49;3.30;;;2.42;;
44428;SDS011;30134;47.866;-4.222;2023-06-04T05:47:16;4.25;;;2.60;;
44428;SDS011;30134;47.866;-4.222;2023-06-04T05:49:43;5.25;;;2.88;;
44428;SDS011;30134;47.866;-4.222;2023-06-04T05:52:09;4.00;;;2.80;;
44428;SDS011;30134;47.866;-4.222;2023-06-04T05:54:35;4.60;;;2.67;;
44428;SDS011;30134;47.866;-4.222;2023-06-04T05:57:04;3.95;;;2.50;;
44428;SDS011;30134;47.866;-4.222;2023-06-04T05:59:31;3.50;;;2.45;;
44428;SDS011;30134;47.866;-4.222;2023-06-04T06:01:57;3.33;;;2.58;;
44428;SDS011;30134;47.866;-4.222;2023-06-04T06:04:23;3.83;;;2.45;;
44428;SDS011;30134;47.866;-4.222;2023-06-04T06:06:50;5.10;;;3.05;;
44428;SDS011;30134;47.866;-4.222;2023-06-04T06:09:16;3.40;;;2.42;;
44428;SDS011;30134;47.866;-4.222;2023-06-04T06:11:43;2.75;;;2.30;;
44428;SDS011;30134;47.866;-4.222;2023-06-04T06:14:09;4.30;;;2.58;;
44428;SDS011;30134;47.866;-4.222;2023-06-04T06:16:35;3.30;;;2.60;;
44428;SDS011;30134;47.866;-4.222;2023-06-04T06:19:02;4.18;;;2.50;;
44428;SDS011;30134;47.866;-4.222;2023-06-04T06:21:28;4.60;;;2.47;;
44428;SDS011;30134;47.866;-4.222;2023-06-04T06:23:55;2.70;;;2.30;;
44428;SDS011;30134;47.866;-4.222;2023-06-04T06:26:20;4.85;;;2.33;;
44428;SDS011;30134;47.866;-4.222;2023-06-04T06:28:50;3.63;;;2.55;;
44428;SDS011;30134;47.866;-4.222;2023-06-04T06:31:16;4.38;;;2.65;;
44428;SDS011;30134;47.866;-4.222;2023-06-04T06:33:42;5.00;;;2.35;;
44428;SDS011;30134;47.866;-4.222;2023-06-04T06:36:11;3.47;;;2.47;;
44428;SDS011;30134;47.866;-4.222;2023-06-04T06:38:38;3.97;;;2.70;;
44428;SDS011;30134;47.866;-4.222;2023-06-04T06:41:05;4.22;;;2.88;;
44428;SDS011;30134;47.866;-4.222;2023-06-04T06:43:34;3.28;;;2.33;;
44428;SDS011;30134;47.866;-4.222;2023-06-04T06:46:00;3.88;;;2.58;;
44428;SDS011;30134;47.866;-4.222;2023-06-04T06:48:26;4.43;;;2.67;;
44428;SDS011;30134;47.866;-4.222;2023-06-04T06:50:52;5.40;;;2.45;;
44428;SDS011;30134;47.866;-4.222;2023-06-04T06:53:19;5.10;;;2.75;;
44428;SDS011;30134;47.866;-4.222;2023-06-04T06:55:45;3.30;;;2.15;;
44428;SDS011;30134;47.866;-4.222;2023-06-04T06:58:11;3.63;;;2.40;;
44428;SDS011;30134;47.866;-4.222;2023-06-04T07:00:37;4.70;;;2.60;;
44428;SDS011;30134;47.866;-4.222;2023-06-04T07:03:06;2.95;;;2.25;;
44428;SDS011;30134;47.866;-4.222;2023-06-04T07:05:33;6.18;;;2.55;;
44428;SDS011;30134;47.866;-4.222;2023-06-04T07:07:59;3.47;;;2.30;;
44428;SDS011;30134;47.866;-4.222;2023-06-04T07:10:26;4.07;;;2.58;;
44428;SDS011;30134;47.866;-4.222;2023-06-04T07:12:53;3.17;;;1.90;;
44428;SDS011;30134;47.866;-4.222;2023-06-04T07:15:19;4.13;;;2.60;;
44428;SDS011;30134;47.866;-4.222;2023-06-04T07:17:45;3.63;;;2.47;;
44428;SDS011;30134;47.866;-4.222;2023-06-04T07:20:11;3.63;;;2.25;;
44428;SDS011;30134;47.866;-4.222;2023-06-04T07:22:38;4.00;;;2.38;;
44428;SDS011;30134;47.866;-4.222;2023-06-04T07:25:04;4.55;;;2.30;;
44428;SDS011;30134;47.866;-4.222;2023-06-04T07:27:31;4.68;;;2.58;;
44428;SDS011;30134;47.866;-4.222;2023-06-04T07:29:59;4.60;;;2.15;;
44428;SDS011;30134;47.866;-4.222;2023-06-04T07:32:25;3.35;;;2.25;;
44428;SDS011;30134;47.866;-4.222;2023-06-04T07:34:51;3.63;;;2.35;;
44428;SDS011;30134;47.866;-4.222;2023-06-04T07:37:17;4.00;;;2.15;;
44428;SDS011;30134;47.866;-4.222;2023-06-04T07:39:43;3.00;;;2.15;;
44428;SDS011;30134;47.866;-4.222;2023-06-04T07:42:09;3.63;;;2.10;;
44428;SDS011;30134;47.866;-4.222;2023-06-04T07:44:36;3.75;;;2.38;;
44428;SDS011;30134;47.866;-4.222;2023-06-04T07:47:03;3.75;;;2.10;;
44428;SDS011;30134;47.866;-4.222;2023-06-04T07:49:30;4.10;;;2.30;;
44428;SDS011;30134;47.866;-4.222;2023-06-04T07:52:00;2.97;;;2.20;;
44428;SDS011;30134;47.866;-4.222;2023-06-04T07:54:26;6.43;;;2.58;;
44428;SDS011;30134;47.866;-4.222;2023-06-04T07:56:52;37.63;;;22.92;;
44428;SDS011;30134;47.866;-4.222;2023-06-04T07:59:24;50.70;;;33.17;;
44428;SDS011;30134;47.866;-4.222;2023-06-04T08:01:50;34.00;;;21.67;;
44428;SDS011;30134;47.866;-4.222;2023-06-04T08:04:17;27.23;;;17.33;;
44428;SDS011;30134;47.866;-4.222;2023-06-04T08:06:43;25.33;;;15.73;;
44428;SDS011;30134;47.866;-4.222;2023-06-04T08:09:11;23.83;;;13.60;;
44428;SDS011;30134;47.866;-4.222;2023-06-04T08:11:38;23.45;;;13.65;;
44428;SDS011;30134;47.866;-4.222;2023-06-04T08:14:07;21.00;;;11.90;;
44428;SDS011;30134;47.866;-4.222;2023-06-04T08:16:36;19.45;;;11.15;;
44428;SDS011;30134;47.866;-4.222;2023-06-04T08:19:02;18.15;;;10.77;;
44428;SDS011;30134;47.866;-4.222;2023-06-04T08:21:28;15.63;;;9.27;;
44428;SDS011;30134;47.866;-4.222;2023-06-04T08:23:54;16.88;;;9.52;;
44428;SDS011;30134;47.866;-4.222;2023-06-04T08:26:20;15.05;;;8.43;;
44428;SDS011;30134;47.866;-4.222;2023-06-04T08:28:50;14.90;;;7.43;;
44428;SDS011;30134;47.866;-4.222;2023-06-04T08:31:16;12.30;;;7.10;;
44428;SDS011;30134;47.866;-4.222;2023-06-04T08:33:44;10.80;;;6.32;;
44428;SDS011;30134;47.866;-4.222;2023-06-04T08:36:11;14.32;;;6.43;;
44428;SDS011;30134;47.866;-4.222;2023-06-04T08:38:37;14.70;;;6.55;;
44428;SDS011;30134;47.866;-4.222;2023-06-04T08:41:13;14.68;;;6.32;;
44428;SDS011;30134;47.866;-4.222;2023-06-04T08:43:45;10.45;;;5.60;;
44428;SDS011;30134;47.866;-4.222;2023-06-04T08:46:13;12.18;;;6.22;;
44428;SDS011;30134;47.866;-4.222;2023-06-04T08:48:42;10.43;;;4.75;;
44428;SDS011;30134;47.866;-4.222;2023-06-04T08:51:09;8.77;;;3.90;;
44428;SDS011;30134;47.866;-4.222;2023-06-04T08:53:37;14.98;;;4.20;;
44428;SDS011;30134;47.866;-4.222;2023-06-04T08:56:07;17.98;;;4.15;;
44428;SDS011;30134;47.866;-4.222;2023-06-04T08:58:33;7.15;;;3.30;;
44428;SDS011;30134;47.866;-4.222;2023-06-04T09:01:01;12.95;;;3.33;;
44428;SDS011;30134;47.866;-4.222;2023-06-04T09:03:28;9.50;;;3.15;;
44428;SDS011;30134;47.866;-4.222;2023-06-04T09:05:58;9.80;;;3.10;;
44428;SDS011;30134;47.866;-4.222;2023-06-04T09:08:26;6.60;;;2.92;;
44428;SDS011;30134;47.866;-4.222;2023-06-04T09:10:56;7.15;;;3.25;;
44428;SDS011;30134;47.866;-4.222;2023-06-04T09:13:25;8.98;;;3.08;;
44428;SDS011;30134;47.866;-4.222;2023-06-04T09:15:59;10.02;;;3.15;;
44428;SDS011;30134;47.866;-4.222;2023-06-04T09:18:31;8.48;;;3.13;;
44428;SDS011;30134;47.866;-4.222;2023-06-04T09:21:01;8.90;;;3.58;;
44428;SDS011;30134;47.866;-4.222;2023-06-04T09:23:45;10.75;;;2.90;;
44428;SDS011;30134;47.866;-4.222;2023-06-04T09:26:12;6.90;;;3.20;;
44428;SDS011;30134;47.866;-4.222;2023-06-04T09:28:45;6.05;;;2.85;;
44428;SDS011;30134;47.866;-4.222;2023-06-04T09:31:22;5.97;;;3.08;;
44428;SDS011;30134;47.866;-4.222;2023-06-04T09:33:51;6.38;;;2.92;;
44428;SDS011;30134;47.866;-4.222;2023-06-04T09:36:18;5.53;;;3.00;;
44428;SDS011;30134;47.866;-4.222;2023-06-04T09:38:45;7.32;;;2.72;;
44428;SDS011;30134;47.866;-4.222;2023-06-04T09:41:11;3.15;;;2.40;;
44428;SDS011;30134;47.866;-4.222;2023-06-04T09:43:39;3.92;;;2.20;;
44428;SDS011;30134;47.866;-4.222;2023-06-04T09:46:15;5.45;;;2.67;;
44428;SDS011;30134;47.866;-4.222;2023-06-04T09:48:43;4.57;;;2.63;;
44428;SDS011;30134;47.866;-4.222;2023-06-04T09:51:11;4.50;;;2.40;;
44428;SDS011;30134;47.866;-4.222;2023-06-04T09:53:40;3.67;;;3.00;;
44428;SDS011;30134;47.866;-4.222;2023-06-04T09:56:07;3.70;;;2.50;;
44428;SDS011;30134;47.866;-4.222;2023-06-04T09:58:42;4.50;;;2.60;;
44428;SDS011;30134;47.866;-4.222;2023-06-04T10:01:16;4.68;;;2.97;;
44428;SDS011;30134;47.866;-4.222;2023-06-04T10:03:44;3.80;;;2.55;;
44428;SDS011;30134;47.866;-4.222;2023-06-04T10:06:16;4.43;;;2.38;;
44428;SDS011;30134;47.866;-4.222;2023-06-04T10:08:49;3.63;;;2.22;;
44428;SDS011;30134;47.866;-4.222;2023-06-04T10:11:23;4.10;;;2.50;;
44428;SDS011;30134;47.866;-4.222;2023-06-04T10:17:01;4.10;;;2.47;;
44428;SDS011;30134;47.866;-4.222;2023-06-04T10:19:28;4.55;;;2.58;;
44428;SDS011;30134;47.866;-4.222;2023-06-04T10:21:55;5.30;;;2.40;;
44428;SDS011;30134;47.866;-4.222;2023-06-04T10:24:21;2.67;;;2.40;;
44428;SDS011;30134;47.866;-4.222;2023-06-04T10:26:49;3.40;;;2.40;;
44428;SDS011;30134;47.866;-4.222;2023-06-04T10:29:20;6.77;;;3.27;;
44428;SDS011;30134;47.866;-4.222;2023-06-04T10:31:46;13.35;;;7.00;;
44428;SDS011;30134;47.866;-4.222;2023-06-04T10:34:21;79.03;;;47.35;;
44428;SDS011;30134;47.866;-4.222;2023-06-04T10:36:51;104.32;;;63.88;;
44428;SDS011;30134;47.866;-4.222;2023-06-04T10:39:25;100.63;;;64.40;;
44428;SDS011;30134;47.866;-4.222;2023-06-04T10:42:01;80.38;;;50.60;;
44428;SDS011;30134;47.866;-4.222;2023-06-04T10:44:32;77.82;;;43.45;;
44428;SDS011;30134;47.866;-4.222;2023-06-04T10:47:19;64.30;;;40.17;;
44428;SDS011;30134;47.866;-4.222;2023-06-04T10:49:53;52.03;;;33.03;;
44428;SDS011;30134;47.866;-4.222;2023-06-04T10:52:20;49.83;;;31.50;;
44428;SDS011;30134;47.866;-4.222;2023-06-04T10:54:47;38.75;;;26.23;;
44428;SDS011;30134;47.866;-4.222;2023-06-04T10:57:15;32.33;;;21.42;;
44428;SDS011;30134;47.866;-4.222;2023-06-04T10:59:59;30.13;;;18.23;;
44428;SDS011;30134;47.866;-4.222;2023-06-04T11:02:27;28.08;;;16.48;;
44428;SDS011;30134;47.866;-4.222;2023-06-04T11:05:03;24.92;;;14.48;;
44428;SDS011;30134;47.866;-4.222;2023-06-04T11:07:44;25.50;;;13.07;;
44428;SDS011;30134;47.866;-4.222;2023-06-04T11:10:15;21.70;;;13.02;;
44428;SDS011;30134;47.866;-4.222;2023-06-04T11:12:47;17.52;;;11.50;;
44428;SDS011;30134;47.866;-4.222;2023-06-04T11:15:16;16.98;;;10.02;;
44428;SDS011;30134;47.866;-4.222;2023-06-04T11:17:52;16.65;;;9.15;;
44428;SDS011;30134;47.866;-4.222;2023-06-04T11:20:23;11.02;;;7.80;;
44428;SDS011;30134;47.866;-4.222;2023-06-04T11:22:54;14.10;;;7.90;;
44428;SDS011;30134;47.866;-4.222;2023-06-04T11:25:22;13.30;;;7.70;;
44428;SDS011;30134;47.866;-4.222;2023-06-04T11:27:52;12.13;;;6.53;;
44428;SDS011;30134;47.866;-4.222;2023-06-04T11:30:19;10.10;;;6.20;;
44428;SDS011;30134;47.866;-4.222;2023-06-04T11:32:46;9.65;;;6.18;;
44428;SDS011;30134;47.866;-4.222;2023-06-04T11:35:12;10.68;;;6.00;;
44428;SDS011;30134;47.866;-4.222;2023-06-04T11:37:39;8.15;;;5.10;;
44428;SDS011;30134;47.866;-4.222;2023-06-04T11:40:18;8.88;;;5.50;;
44428;SDS011;30134;47.866;-4.222;2023-06-04T11:42:45;10.98;;;6.03;;
44428;SDS011;30134;47.866;-4.222;2023-06-04T11:45:13;9.60;;;5.55;;
44428;SDS011;30134;47.866;-4.222;2023-06-04T11:47:47;8.85;;;4.97;;
44428;SDS011;30134;47.866;-4.222;2023-06-04T11:50:19;9.65;;;5.35;;
44428;SDS011;30134;47.866;-4.222;2023-06-04T11:52:46;16.13;;;9.15;;
44428;SDS011;30134;47.866;-4.222;2023-06-04T11:55:14;13.77;;;8.75;;
44428;SDS011;30134;47.866;-4.222;2023-06-04T11:57:42;11.50;;;5.63;;
44428;SDS011;30134;47.866;-4.222;2023-06-04T12:00:09;14.00;;;5.00;;
44428;SDS011;30134;47.866;-4.222;2023-06-04T12:02:48;10.57;;;5.20;;
44428;SDS011;30134;47.866;-4.222;2023-06-04T12:05:18;13.35;;;4.82;;
44428;SDS011;30134;47.866;-4.222;2023-06-04T12:07:45;9.98;;;4.45;;
44428;SDS011;30134;47.866;-4.222;2023-06-04T12:10:21;10.43;;;4.65;;
44428;SDS011;30134;47.866;-4.222;2023-06-04T12:12:55;7.40;;;4.15;;
44428;SDS011;30134;47.866;-4.222;2023-06-04T12:15:21;9.45;;;4.05;;
44428;SDS011;30134;47.866;-4.222;2023-06-04T12:17:51;8.25;;;3.95;;
44428;SDS011;30134;47.866;-4.222;2023-06-04T12:20:40;6.07;;;3.37;;
44428;SDS011;30134;47.866;-4.222;2023-06-04T12:23:08;7.47;;;4.15;;
44428;SDS011;30134;47.866;-4.222;2023-06-04T12:25:49;9.50;;;3.60;;
44428;SDS011;30134;47.866;-4.222;2023-06-04T12:28:19;9.20;;;3.78;;
44428;SDS011;30134;47.866;-4.222;2023-06-04T12:30:45;10.93;;;3.55;;
44428;SDS011;30134;47.866;-4.222;2023-06-04T12:33:11;7.28;;;3.83;;
44428;SDS011;30134;47.866;-4.222;2023-06-04T12:35:37;9.43;;;3.30;;
44428;SDS011;30134;47.866;-4.222;2023-06-04T12:38:04;8.48;;;3.25;;
44428;SDS011;30134;47.866;-4.222;2023-06-04T12:40:30;7.15;;;3.60;;
44428;SDS011;30134;47.866;-4.222;2023-06-04T12:42:56;7.43;;;3.50;;
44428;SDS011;30134;47.866;-4.222;2023-06-04T12:45:23;8.10;;;3.60;;
44428;SDS011;30134;47.866;-4.222;2023-06-04T12:47:49;9.30;;;3.72;;
44428;SDS011;30134;47.866;-4.222;2023-06-04T12:50:15;9.27;;;3.63;;
44428;SDS011;30134;47.866;-4.222;2023-06-04T12:52:43;5.53;;;3.22;;
44428;SDS011;30134;47.866;-4.222;2023-06-04T12:55:09;6.25;;;3.67;;
44428;SDS011;30134;47.866;-4.222;2023-06-04T12:57:35;6.82;;;3.85;;
44428;SDS011;30134;47.866;-4.222;2023-06-04T13:00:01;6.13;;;3.33;;
44428;SDS011;30134;47.866;-4.222;2023-06-04T13:02:29;6.65;;;3.30;;
44428;SDS011;30134;47.866;-4.222;2023-06-04T13:04:55;7.57;;;3.17;;
44428;SDS011;30134;47.866;-4.222;2023-06-04T13:07:22;8.15;;;3.72;;
44428;SDS011;30134;47.866;-4.222;2023-06-04T13:09:48;6.25;;;3.63;;
44428;SDS011;30134;47.866;-4.222;2023-06-04T13:12:14;8.80;;;4.07;;
44428;SDS011;30134;47.866;-4.222;2023-06-04T13:14:40;6.70;;;3.67;;
44428;SDS011;30134;47.866;-4.222;2023-06-04T13:17:06;8.43;;;3.70;;
44428;SDS011;30134;47.866;-4.222;2023-06-04T13:19:35;10.68;;;4.22;;
44428;SDS011;30134;47.866;-4.222;2023-06-04T13:22:01;6.80;;;3.80;;
44428;SDS011;30134;47.866;-4.222;2023-06-04T13:24:27;10.90;;;3.58;;
44428;SDS011;30134;47.866;-4.222;2023-06-04T13:26:53;8.75;;;3.80;;
44428;SDS011;30134;47.866;-4.222;2023-06-04T13:29:20;12.57;;;3.58;;
44428;SDS011;30134;47.866;-4.222;2023-06-04T13:31:48;7.30;;;3.58;;
44428;SDS011;30134;47.866;-4.222;2023-06-04T13:34:15;7.45;;;3.47;;
44428;SDS011;30134;47.866;-4.222;2023-06-04T13:36:41;7.63;;;3.78;;
44428;SDS011;30134;47.866;-4.222;2023-06-04T13:39:07;7.72;;;3.28;;
44428;SDS011;30134;47.866;-4.222;2023-06-04T13:41:33;6.90;;;3.65;;
44428;SDS011;30134;47.866;-4.222;2023-06-04T13:43:59;9.45;;;3.40;;
44428;SDS011;30134;47.866;-4.222;2023-06-04T13:46:25;6.68;;;3.67;;
44428;SDS011;30134;47.866;-4.222;2023-06-04T13:48:51;89.53;;;53.53;;
44428;SDS011;30134;47.866;-4.222;2023-06-04T13:51:17;85.82;;;55.42;;
44428;SDS011;30134;47.866;-4.222;2023-06-04T13:53:43;60.60;;;37.85;;
44428;SDS011;30134;47.866;-4.222;2023-06-04T13:56:09;39.72;;;23.63;;
44428;SDS011;30134;47.866;-4.222;2023-06-04T13:58:35;35.00;;;22.08;;
44428;SDS011;30134;47.866;-4.222;2023-06-04T14:01:01;27.65;;;17.15;;
44428;SDS011;30134;47.866;-4.222;2023-06-04T14:03:27;29.65;;;17.40;;
44428;SDS011;30134;47.866;-4.222;2023-06-04T14:05:57;21.95;;;12.77;;
44428;SDS011;30134;47.866;-4.222;2023-06-04T14:08:23;17.83;;;10.93;;
44428;SDS011;30134;47.866;-4.222;2023-06-04T14:10:49;14.02;;;8.63;;
44428;SDS011;30134;47.866;-4.222;2023-06-04T14:13:17;13.02;;;7.38;;
44428;SDS011;30134;47.866;-4.222;2023-06-04T14:15:45;13.75;;;6.72;;
44428;SDS011;30134;47.866;-4.222;2023-06-04T14:18:11;12.18;;;6.38;;
44428;SDS011;30134;47.866;-4.222;2023-06-04T14:20:37;10.35;;;5.30;;
44428;SDS011;30134;47.866;-4.222;2023-06-04T14:23:03;8.75;;;5.10;;
44428;SDS011;30134;47.866;-4.222;2023-06-04T14:25:29;9.50;;;4.57;;
44428;SDS011;30134;47.866;-4.222;2023-06-04T14:27:59;8.68;;;4.45;;
44428;SDS011;30134;47.866;-4.222;2023-06-04T14:30:26;7.70;;;4.03;;
44428;SDS011;30134;47.866;-4.222;2023-06-04T14:32:52;7.50;;;4.38;;
44428;SDS011;30134;47.866;-4.222;2023-06-04T14:35:18;9.05;;;4.25;;
44428;SDS011;30134;47.866;-4.222;2023-06-04T14:37:44;12.23;;;3.80;;
44428;SDS011;30134;47.866;-4.222;2023-06-04T14:40:10;13.43;;;4.30;;